createdAt,value
2019-06-26T00:01:52.064Z,94516.23
2019-06-26T00:04:20.735Z,94518.73
2019-06-26T00:06:49.456Z,94503.20
2019-06-26T00:09:17.858Z,94510.70
2019-06-26T00:11:46.254Z,94520.86
2019-06-26T00:14:14.664Z,94516.88
2019-06-26T00:16:43.460Z,94515.41
2019-06-26T00:19:12.151Z,94515.41
2019-06-26T00:21:40.536Z,94519.23
2019-06-26T00:24:10.762Z,94518.99
2019-06-26T00:26:39.143Z,94522.48
2019-06-26T00:29:07.558Z,94516.79
2019-06-26T00:31:35.950Z,94521.94
2019-06-26T00:34:04.539Z,94519.44
2019-06-26T00:36:32.925Z,94514.91
2019-06-26T00:39:01.356Z,94529.95
2019-06-26T00:41:29.757Z,94525.28
2019-06-26T00:43:58.512Z,94525.81
2019-06-26T00:46:26.915Z,94530.36
2019-06-26T00:48:55.670Z,94531.94
2019-06-26T00:51:24.460Z,94531.94
2019-06-26T00:53:53.147Z,94533.33
2019-06-26T00:56:21.543Z,94530.29
2019-06-26T00:58:49.958Z,94531.22
2019-06-26T01:01:18.362Z,94521.22
2019-06-26T01:03:48.646Z,94532.12
2019-06-26T01:06:34.904Z,94526.13
2019-06-26T01:09:03.930Z,94526.42
2019-06-26T01:11:32.309Z,94525.10
2019-06-26T01:14:00.728Z,94515.80
2019-06-26T01:16:29.484Z,94516.96
2019-06-26T01:18:58.238Z,94524.98
2019-06-26T01:21:26.737Z,94520.97
2019-06-26T01:23:55.151Z,94523.55
2019-06-26T01:26:23.550Z,94517.95
2019-06-26T01:28:51.954Z,94517.95
2019-06-26T01:31:20.447Z,94528.14
2019-06-26T01:33:48.891Z,94528.14
2019-06-26T01:36:17.608Z,94527.02
2019-06-26T01:38:46.057Z,94527.02
2019-06-26T01:41:14.799Z,94520.78
2019-06-26T01:43:43.294Z,94518.68
2019-06-26T01:46:11.945Z,94527.13
2019-06-26T01:48:40.351Z,94532.31
2019-06-26T01:51:08.749Z,94518.11
2019-06-26T01:53:37.189Z,94528.80
2019-06-26T01:56:05.883Z,94528.80
2019-06-26T01:58:34.566Z,94533.86
2019-06-26T02:01:03.010Z,94537.90
2019-06-26T02:03:31.727Z,94537.10
2019-06-26T02:06:00.418Z,94544.05
2019-06-26T02:08:28.914Z,94543.28
2019-06-26T02:10:57.343Z,94542.58
2019-06-26T02:13:26.089Z,94540.52
2019-06-26T02:15:54.499Z,94541.67
2019-06-26T02:18:42.401Z,94544.61
2019-06-26T02:21:10.824Z,94547.88
2019-06-26T02:23:39.326Z,94547.38
2019-06-26T02:26:07.732Z,94551.96
2019-06-26T02:28:36.122Z,94559.48
2019-06-26T02:31:04.519Z,94554.48
2019-06-26T02:33:32.941Z,94551.95
2019-06-26T02:36:01.436Z,94559.42
2019-06-26T02:38:29.889Z,94559.77
2019-06-26T02:40:58.615Z,94554.77
2019-06-26T02:43:27.345Z,94559.30
2019-06-26T02:45:55.760Z,94557.00
2019-06-26T02:48:24.150Z,94555.20
2019-06-26T02:50:52.630Z,94558.61
2019-06-26T02:53:21.037Z,94558.99
2019-06-26T02:55:49.433Z,94568.30
2019-06-26T02:58:17.842Z,94568.65
2019-06-26T03:00:46.263Z,94562.41
2019-06-26T03:03:15.073Z,94567.75
2019-06-26T03:05:43.750Z,94569.95
2019-06-26T03:08:12.179Z,94570.80
2019-06-26T03:10:40.934Z,94572.83
2019-06-26T03:13:09.402Z,94577.61
2019-06-26T03:15:37.818Z,94581.95
2019-06-26T03:18:06.317Z,94581.20
2019-06-26T03:20:38.123Z,94576.52
2019-06-26T03:23:06.516Z,94579.17
2019-06-26T03:25:34.949Z,94579.70
2019-06-26T03:28:03.429Z,94576.86
2019-06-26T03:30:31.859Z,94584.55
2019-06-26T03:33:01.344Z,94587.73
2019-06-26T03:35:29.747Z,94589.36
2019-06-26T03:37:58.144Z,94590.08
2019-06-26T03:40:26.552Z,94588.28
2019-06-26T03:42:54.955Z,94590.13
2019-06-26T03:45:26.086Z,94590.08
2019-06-26T03:47:54.283Z,94597.16
2019-06-26T03:50:22.968Z,94596.16
2019-06-26T03:52:51.720Z,94595.84
2019-06-26T03:55:20.201Z,94598.99
2019-06-26T03:57:48.925Z,94600.50
2019-06-26T04:00:38.087Z,94601.77
2019-06-26T04:03:06.795Z,94599.84
2019-06-26T04:05:35.686Z,94604.00
2019-06-26T04:08:04.658Z,94604.19
2019-06-26T04:10:33.513Z,94611.73
2019-06-26T04:13:02.019Z,94608.98
2019-06-26T04:15:41.296Z,94607.28
2019-06-26T04:18:00.954Z,94605.86
2019-06-26T04:20:29.418Z,94603.95
2019-06-26T04:22:58.223Z,94607.77
2019-06-26T04:25:27.154Z,94608.19
2019-06-26T04:27:55.904Z,94606.66
2019-06-26T04:30:25.140Z,94607.88
2019-06-26T04:32:53.912Z,94613.00
2019-06-26T04:35:22.699Z,94613.30
2019-06-26T04:37:51.146Z,94616.58
2019-06-26T04:40:20.547Z,94610.34
2019-06-26T04:42:49.089Z,94616.46
2019-06-26T04:45:18.412Z,94613.70
2019-06-26T04:47:47.012Z,94612.95
2019-06-26T04:50:16.158Z,94612.53
2019-06-26T04:52:44.851Z,94617.89
2019-06-26T04:55:13.858Z,94623.53
2019-06-26T04:57:42.598Z,94617.38
2019-06-26T05:00:13.331Z,94624.94
2019-06-26T05:02:42.130Z,94626.84
2019-06-26T05:05:11.210Z,94620.84
2019-06-26T05:07:39.703Z,94626.58
2019-06-26T05:10:10.308Z,94625.09
2019-06-26T05:12:39.015Z,94621.67
2019-06-26T05:15:08.946Z,94627.34
2019-06-26T05:17:37.423Z,94627.89
2019-06-26T05:20:07.958Z,94625.80
2019-06-26T05:22:36.723Z,94625.58
2019-06-26T05:25:08.923Z,94632.54
2019-06-26T05:27:37.592Z,94626.38
2019-06-26T05:30:08.115Z,94633.02
2019-06-26T05:32:37.315Z,94627.87
2019-06-26T05:35:07.419Z,94618.52
2019-06-26T05:37:35.826Z,94634.48
2019-06-26T05:40:07.272Z,94631.19
2019-06-26T05:42:35.682Z,94634.22
2019-06-26T05:45:05.396Z,94634.55
2019-06-26T05:47:34.182Z,94629.98
2019-06-26T05:50:02.832Z,94627.84
2019-06-26T05:52:31.249Z,94628.62
2019-06-26T05:54:59.896Z,94628.59
2019-06-26T05:57:28.305Z,94631.55
2019-06-26T05:59:56.726Z,94636.53
2019-06-26T06:02:25.131Z,94632.59
2019-06-26T06:04:54.588Z,94634.47
2019-06-26T06:07:23.131Z,94638.08
2019-06-26T06:09:51.705Z,94636.18
2019-06-26T06:12:20.114Z,94642.23
2019-06-26T06:14:48.528Z,94643.29
2019-06-26T06:17:17.256Z,94636.14
2019-06-26T06:19:45.887Z,94635.53
2019-06-26T06:22:14.750Z,94635.61
2019-06-26T06:24:43.147Z,94639.40
2019-06-26T06:27:11.579Z,94640.80
2019-06-26T06:29:40.224Z,94643.22
2019-06-26T06:32:08.731Z,94640.23
2019-06-26T06:34:37.200Z,94646.98
2019-06-26T06:37:05.599Z,94649.26
2019-06-26T06:39:34.009Z,94648.19
2019-06-26T06:42:02.684Z,94651.57
2019-06-26T06:44:31.377Z,94652.04
2019-06-26T06:47:04.242Z,94646.73
2019-06-26T06:49:30.194Z,94660.20
2019-06-26T06:51:58.591Z,94656.01
2019-06-26T06:54:26.995Z,94654.01
2019-06-26T06:56:55.395Z,94655.35
2019-06-26T06:59:23.791Z,94657.24
2019-06-26T07:01:52.189Z,94654.37
2019-06-26T07:04:20.643Z,94655.92
2019-06-26T07:06:49.032Z,94662.09
2019-06-26T07:09:17.437Z,94663.43
2019-06-26T07:11:46.102Z,94661.77
2019-06-26T07:14:14.501Z,94665.55
2019-06-26T07:16:42.914Z,94656.97
2019-06-26T07:19:11.305Z,94656.73
2019-06-26T07:21:39.723Z,94657.16
2019-06-26T07:24:08.423Z,94657.25
2019-06-26T07:26:36.822Z,94656.80
2019-06-26T07:29:05.223Z,94660.48
2019-06-26T07:31:33.708Z,94662.88
2019-06-26T07:34:02.120Z,94658.97
2019-06-26T07:36:30.500Z,94665.27
2019-06-26T07:38:58.929Z,94665.92
2019-06-26T07:41:27.592Z,94662.31
2019-06-26T07:43:56.009Z,94663.34
2019-06-26T07:46:24.383Z,94668.23
2019-06-26T07:48:52.782Z,94664.14
2019-06-26T07:51:21.502Z,94661.58
2019-06-26T07:53:49.913Z,94666.85
2019-06-26T07:56:18.575Z,94666.58
2019-06-26T07:58:47.746Z,94666.34
2019-06-26T08:01:16.462Z,94668.44
2019-06-26T08:03:44.847Z,94657.59
2019-06-26T08:06:13.527Z,94667.03
2019-06-26T08:08:41.918Z,94671.64
2019-06-26T08:11:10.327Z,94664.86
2019-06-26T08:13:38.965Z,94672.13
2019-06-26T08:16:07.375Z,94671.49
2019-06-26T08:18:35.767Z,94669.63
2019-06-26T08:21:12.100Z,94665.53
2019-06-26T08:23:34.639Z,94664.11
2019-06-26T08:26:03.102Z,94667.17
2019-06-26T08:28:31.496Z,94672.72
2019-06-26T08:31:00.058Z,94665.57
2019-06-26T08:33:28.468Z,94678.98
2019-06-26T08:35:56.878Z,94672.58
2019-06-26T08:38:25.550Z,94667.11
2019-06-26T08:40:53.954Z,94672.09
2019-06-26T08:43:22.695Z,94674.39
2019-06-26T08:45:51.390Z,94674.98
2019-06-26T08:48:38.355Z,94669.61
2019-06-26T08:50:50.708Z,94673.33
2019-06-26T08:53:19.385Z,94672.83
2019-06-26T08:55:47.778Z,94667.42
2019-06-26T08:58:16.202Z,94675.58
2019-06-26T09:00:45.145Z,94669.88
2019-06-26T09:03:13.869Z,94674.40
2019-06-26T09:05:47.881Z,94671.81
2019-06-26T09:08:12.704Z,94677.12
2019-06-26T09:10:44.703Z,94674.92
2019-06-26T09:13:11.280Z,94674.12
2019-06-26T09:15:40.062Z,94672.12
2019-06-26T09:18:08.710Z,94674.77
2019-06-26T09:20:39.817Z,94673.16
2019-06-26T09:23:09.161Z,94673.97
2019-06-26T09:25:37.930Z,94668.19
2019-06-26T09:28:06.574Z,94675.84
2019-06-26T09:30:34.970Z,94674.81
2019-06-26T09:33:03.539Z,94669.70
2019-06-26T09:35:31.927Z,94667.86
2019-06-26T09:38:00.401Z,94667.59
2019-06-26T09:40:31.731Z,94671.94
2019-06-26T09:42:58.919Z,94666.04
2019-06-26T09:45:27.767Z,94667.99
2019-06-26T09:47:56.185Z,94673.05
2019-06-26T09:50:24.577Z,94674.84
2019-06-26T09:52:52.984Z,94669.89
2019-06-26T09:55:21.712Z,94669.52
2019-06-26T09:57:50.103Z,94668.97
2019-06-26T10:00:21.440Z,94668.38
2019-06-26T10:02:50.793Z,94670.67
2019-06-26T10:05:19.535Z,94674.51
2019-06-26T10:07:47.933Z,94668.47
2019-06-26T10:10:16.670Z,94671.70
2019-06-26T10:12:45.126Z,94667.81
2019-06-26T10:15:13.994Z,94665.97
2019-06-26T10:17:42.354Z,94662.95
2019-06-26T10:20:11.210Z,94659.34
2019-06-26T10:22:40.008Z,94663.33
2019-06-26T10:25:11.448Z,94654.77
2019-06-26T10:27:39.496Z,94654.64
2019-06-26T10:30:08.461Z,94659.98
2019-06-26T10:32:37.237Z,94657.41
2019-06-26T10:35:07.239Z,94660.95
2019-06-26T10:37:35.913Z,94653.47
2019-06-26T10:40:04.955Z,94651.81
2019-06-26T10:42:33.358Z,94658.17
2019-06-26T10:45:02.097Z,94660.66
2019-06-26T10:47:30.471Z,94658.87
2019-06-26T10:49:59.244Z,94654.58
2019-06-26T10:52:27.631Z,94661.64
2019-06-26T10:54:56.027Z,94658.69
2019-06-26T10:57:24.673Z,94650.45
2019-06-26T10:59:55.664Z,94649.23
2019-06-26T11:02:23.482Z,94649.19
2019-06-26T11:04:52.171Z,94653.34
2019-06-26T11:07:20.566Z,94645.69
2019-06-26T11:09:49.247Z,94637.92
2019-06-26T11:12:17.637Z,94644.82
2019-06-26T11:14:46.043Z,94638.61
2019-06-26T11:17:14.433Z,94637.95
2019-06-26T11:19:44.584Z,94635.43
2019-06-26T11:22:13.140Z,94633.60
2019-06-26T11:24:41.885Z,94628.94
2019-06-26T11:27:10.267Z,94631.89
2019-06-26T11:29:38.929Z,94629.41
2019-06-26T11:32:09.615Z,94631.72
2019-06-26T11:34:37.460Z,94629.31
2019-06-26T11:37:05.867Z,94627.03
2019-06-26T11:39:34.256Z,94624.15
2019-06-26T11:42:02.674Z,94630.38
2019-06-26T11:44:31.143Z,94627.48
2019-06-26T11:46:59.544Z,94628.42
2019-06-26T11:49:27.952Z,94628.48
2019-06-26T11:51:56.339Z,94621.66
2019-06-26T11:54:24.730Z,94620.60
2019-06-26T11:56:53.393Z,94620.55
2019-06-26T11:59:21.781Z,94612.58
2019-06-26T12:01:50.547Z,94614.34
2019-06-26T12:04:18.943Z,94615.30
2019-06-26T12:06:47.599Z,94612.32
2019-06-26T12:09:15.994Z,94612.81
2019-06-26T12:11:44.406Z,94610.51
2019-06-26T12:14:12.802Z,94604.11
2019-06-26T12:16:41.204Z,94598.72
2019-06-26T12:19:09.931Z,94601.55
2019-06-26T12:21:38.590Z,94594.86
2019-06-26T12:24:06.985Z,94600.34
2019-06-26T12:26:35.663Z,94595.51
2019-06-26T12:29:04.160Z,94591.45
2019-06-26T12:31:32.640Z,94591.84
2019-06-26T12:34:01.303Z,94590.37
2019-06-26T12:36:30.007Z,94591.61
2019-06-26T12:38:58.388Z,94586.62
2019-06-26T12:41:27.161Z,94585.30
2019-06-26T12:43:55.553Z,94580.77
2019-06-26T12:46:24.222Z,94580.58
2019-06-26T12:48:52.697Z,94583.73
2019-06-26T12:51:21.173Z,94578.95
2019-06-26T12:53:49.874Z,94574.58
2019-06-26T12:56:18.280Z,94578.05
2019-06-26T12:58:46.728Z,94580.11
2019-06-26T13:01:15.431Z,94575.23
2019-06-26T13:03:43.828Z,94572.45
2019-06-26T13:06:12.248Z,94573.03
2019-06-26T13:08:40.632Z,94571.88
2019-06-26T13:11:09.033Z,94574.87
2019-06-26T13:13:37.431Z,94570.47
2019-06-26T13:16:05.836Z,94573.12
2019-06-26T13:18:34.696Z,94567.13
2019-06-26T13:21:05.252Z,94574.48
2019-06-26T13:23:33.603Z,94563.90
2019-06-26T13:26:01.998Z,94562.53
2019-06-26T13:28:30.397Z,94567.70
2019-06-26T13:30:58.891Z,94562.07
2019-06-26T13:33:27.330Z,94569.10
2019-06-26T13:35:55.758Z,94561.83
2019-06-26T13:38:27.078Z,94568.14
2019-06-26T13:40:54.640Z,94569.41
2019-06-26T13:43:23.035Z,94569.83
2019-06-26T13:45:51.797Z,94564.95
2019-06-26T13:48:20.316Z,94558.91
2019-06-26T13:50:48.707Z,94564.44
2019-06-26T13:53:17.122Z,94556.27
2019-06-26T13:55:45.517Z,94557.50
2019-06-26T13:58:13.918Z,94562.03
2019-06-26T14:00:42.317Z,94553.78
2019-06-26T14:03:10.822Z,94555.72
2019-06-26T14:05:39.551Z,94552.56
2019-06-26T14:08:07.989Z,94552.06
2019-06-26T14:10:36.396Z,94553.27
2019-06-26T14:13:04.900Z,94555.41
2019-06-26T14:15:33.413Z,94553.66
2019-06-26T14:18:01.846Z,94550.70
2019-06-26T14:20:30.262Z,94545.78
2019-06-26T14:22:58.704Z,94550.17
2019-06-26T14:25:27.132Z,94546.21
2019-06-26T14:27:55.870Z,94546.89
2019-06-26T14:30:27.833Z,94543.58
2019-06-26T14:32:54.870Z,94542.80
2019-06-26T14:35:23.563Z,94552.55
2019-06-26T14:37:52.016Z,94549.43
2019-06-26T14:40:21.962Z,94543.86
2019-06-26T14:42:50.393Z,94540.70
2019-06-26T14:45:19.263Z,94544.08
2019-06-26T14:47:48.042Z,94538.94
2019-06-26T14:50:17.598Z,94542.70
2019-06-26T14:52:46.179Z,94540.80
2019-06-26T14:55:14.966Z,94536.80
2019-06-26T14:57:43.349Z,94537.55
2019-06-26T15:00:12.720Z,94532.13
2019-06-26T15:02:41.161Z,94532.17
2019-06-26T15:05:10.535Z,94533.44
2019-06-26T15:07:39.028Z,94529.60
2019-06-26T15:10:08.883Z,94530.07
2019-06-26T15:12:37.860Z,94517.92
2019-06-26T15:15:08.591Z,94518.22
2019-06-26T15:17:37.025Z,94517.66
2019-06-26T15:20:08.405Z,94516.91
2019-06-26T15:22:36.799Z,94509.17
2019-06-26T15:25:07.259Z,94513.98
2019-06-26T15:27:35.740Z,94512.69
2019-06-26T15:30:09.123Z,94515.70
2019-06-26T15:32:37.549Z,94512.95
2019-06-26T15:35:07.417Z,94511.48
2019-06-26T15:37:36.145Z,94509.77
2019-06-26T15:40:06.279Z,94507.20
2019-06-26T15:42:34.996Z,94503.27
2019-06-26T15:45:03.614Z,94513.02
2019-06-26T15:47:32.276Z,94506.55
2019-06-26T15:50:00.693Z,94504.96
2019-06-26T15:52:31.520Z,94502.49
2019-06-26T15:54:59.333Z,94504.61
2019-06-26T15:57:27.732Z,94505.67
2019-06-26T15:59:56.481Z,94503.37
2019-06-26T16:02:24.918Z,94504.22
2019-06-26T16:04:53.595Z,94499.25
2019-06-26T16:07:21.998Z,94501.69
2019-06-26T16:09:50.400Z,94497.43
2019-06-26T16:12:18.795Z,94488.73
2019-06-26T16:14:47.623Z,94489.41
2019-06-26T16:17:17.644Z,94490.92
2019-06-26T16:19:46.329Z,94491.36
2019-06-26T16:22:27.784Z,94495.25
2019-06-26T16:24:45.180Z,94488.45
2019-06-26T16:27:13.580Z,94492.81
2019-06-26T16:29:42.639Z,94487.72
2019-06-26T16:32:11.215Z,94492.05
2019-06-26T16:34:42.079Z,94482.09
2019-06-26T16:37:09.763Z,94481.92
2019-06-26T16:39:38.177Z,94488.59
2019-06-26T16:42:06.606Z,94491.11
2019-06-26T16:44:35.345Z,94489.84
2019-06-26T16:47:03.747Z,94497.36
2019-06-26T16:49:32.144Z,94499.50
2019-06-26T16:52:00.910Z,94497.97
2019-06-26T16:54:29.571Z,94500.90
2019-06-26T16:56:57.977Z,94499.62
2019-06-26T16:59:26.380Z,94500.95
2019-06-26T17:01:55.140Z,94495.36
2019-06-26T17:04:23.562Z,94499.70
2019-06-26T17:06:52.010Z,94499.50
2019-06-26T17:09:20.402Z,94496.83
2019-06-26T17:11:49.166Z,94497.41
2019-06-26T17:14:17.863Z,94504.23
2019-06-26T17:16:46.255Z,94501.59
2019-06-26T17:19:14.650Z,94502.20
2019-06-26T17:21:43.074Z,94498.81
2019-06-26T17:24:11.480Z,94506.25
2019-06-26T17:26:39.893Z,94508.92
2019-06-26T17:29:08.639Z,94509.73
2019-06-26T17:31:37.325Z,94508.51
2019-06-26T17:34:05.726Z,94509.95
2019-06-26T17:36:34.145Z,94518.73
2019-06-26T17:39:02.705Z,94513.23
2019-06-26T17:41:31.094Z,94511.98
2019-06-26T17:43:59.514Z,94508.95
2019-06-26T17:46:27.964Z,94510.48
2019-06-26T17:48:56.702Z,94507.59
2019-06-26T17:51:25.225Z,94507.59
2019-06-26T17:53:53.611Z,94507.63
2019-06-26T17:56:22.345Z,94509.72
2019-06-26T17:58:50.753Z,94511.20
2019-06-26T18:01:19.535Z,94509.16
2019-06-26T18:03:47.935Z,94509.99
2019-06-26T18:06:16.336Z,94509.72
2019-06-26T18:08:44.731Z,94512.66
2019-06-26T18:11:13.159Z,94520.77
2019-06-26T18:13:41.548Z,94518.05
2019-06-26T18:16:09.952Z,94521.46
2019-06-26T18:18:38.682Z,94526.25
2019-06-26T18:21:07.488Z,94528.63
2019-06-26T18:23:38.439Z,94527.36
2019-06-26T18:26:12.920Z,94532.62
2019-06-26T18:28:36.138Z,94533.05
2019-06-26T18:31:04.618Z,94531.54
2019-06-26T18:33:33.012Z,94531.91
2019-06-26T18:36:01.402Z,94539.61
2019-06-26T18:38:29.824Z,94540.90
2019-06-26T18:40:58.269Z,94539.68
2019-06-26T18:43:26.726Z,94544.25
2019-06-26T18:45:55.123Z,94542.19
2019-06-26T18:48:25.033Z,94546.17
2019-06-26T18:50:53.581Z,94541.89
2019-06-26T18:53:22.023Z,94544.48
2019-06-26T18:55:50.835Z,94544.54
2019-06-26T18:58:19.365Z,94548.50
2019-06-26T19:00:47.985Z,94548.38
2019-06-26T19:03:16.464Z,94545.73
2019-06-26T19:05:45.065Z,94544.02
2019-06-26T19:08:13.483Z,94542.74
2019-06-26T19:10:42.264Z,94546.03
2019-06-26T19:13:11.037Z,94547.11
2019-06-26T19:15:39.862Z,94548.66
2019-06-26T19:18:08.595Z,94549.84
2019-06-26T19:20:36.998Z,94555.57
2019-06-26T19:23:05.660Z,94558.72
2019-06-26T19:25:34.374Z,94553.37
2019-06-26T19:28:02.863Z,94558.25
2019-06-26T19:30:31.530Z,94557.67
2019-06-26T19:33:00.205Z,94562.14
2019-06-26T19:35:28.597Z,94560.35
2019-06-26T19:37:57.041Z,94555.70
2019-06-26T19:40:25.465Z,94567.70
2019-06-26T19:42:53.871Z,94566.33
2019-06-26T19:45:22.833Z,94568.28
2019-06-26T19:47:51.297Z,94568.80
2019-06-26T19:50:23.341Z,94575.66
2019-06-26T19:52:50.312Z,94576.02
2019-06-26T19:55:18.965Z,94585.69
2019-06-26T19:57:47.797Z,94585.45
2019-06-26T20:00:16.621Z,94588.55
2019-06-26T20:02:45.660Z,94588.62
2019-06-26T20:05:14.073Z,94591.30
2019-06-26T20:07:42.498Z,94590.73
2019-06-26T20:10:12.757Z,94589.92
2019-06-26T20:12:41.227Z,94587.68
2019-06-26T20:15:09.968Z,94585.40
2019-06-26T20:17:38.716Z,94596.25
2019-06-26T20:20:07.879Z,94589.16
2019-06-26T20:22:36.354Z,94588.50
2019-06-26T20:25:07.806Z,94587.29
2019-06-26T20:27:36.410Z,94590.36
2019-06-26T20:30:09.539Z,94585.05
2019-06-26T20:32:36.584Z,94584.59
2019-06-26T20:35:06.850Z,94582.17
2019-06-26T20:37:35.336Z,94585.03
2019-06-26T20:40:06.000Z,94586.53
2019-06-26T20:42:34.430Z,94579.80
2019-06-26T20:45:03.222Z,94578.05
2019-06-26T20:47:31.611Z,94580.84
2019-06-26T20:50:00.017Z,94579.76
2019-06-26T20:52:28.714Z,94582.13
2019-06-26T20:55:02.176Z,94581.92
2019-06-26T20:57:27.535Z,94577.03
2019-06-26T20:59:56.044Z,94590.02
2019-06-26T21:02:24.509Z,94582.90
2019-06-26T21:04:52.926Z,94595.73
2019-06-26T21:07:21.600Z,94587.19
2019-06-26T21:09:50.012Z,94585.66
2019-06-26T21:12:18.739Z,94586.12
2019-06-26T21:14:47.244Z,94595.83
2019-06-26T21:17:16.152Z,94599.77
2019-06-26T21:19:44.761Z,94596.20
2019-06-26T21:22:13.186Z,94596.23
2019-06-26T21:24:41.586Z,94595.67
2019-06-26T21:27:10.334Z,94597.50
2019-06-26T21:29:38.840Z,94594.84
2019-06-26T21:32:07.243Z,94593.73
2019-06-26T21:34:35.645Z,94595.63
2019-06-26T21:37:04.708Z,94591.08
2019-06-26T21:39:33.323Z,94594.88
2019-06-26T21:42:01.717Z,94591.20
2019-06-26T21:44:30.471Z,94594.64
2019-06-26T21:46:58.911Z,94594.68
2019-06-26T21:49:27.431Z,94594.44
2019-06-26T21:51:56.285Z,94598.98
2019-06-26T21:54:25.075Z,94599.53
2019-06-26T21:56:53.467Z,94598.88
2019-06-26T21:59:22.154Z,94596.64
2019-06-26T22:01:50.918Z,94606.41
2019-06-26T22:04:19.970Z,94599.30
2019-06-26T22:06:48.728Z,94599.41
2019-06-26T22:09:17.446Z,94596.84
2019-06-26T22:11:46.128Z,94601.52
2019-06-26T22:14:15.023Z,94594.84
2019-06-26T22:16:43.432Z,94591.05
2019-06-26T22:19:12.049Z,94596.16
2019-06-26T22:21:40.599Z,94584.25
2019-06-26T22:24:09.407Z,94589.91
2019-06-26T22:26:37.888Z,94588.36
2019-06-26T22:29:06.353Z,94592.46
2019-06-26T22:31:34.933Z,94596.31
2019-06-26T22:34:03.341Z,94596.30
2019-06-26T22:36:32.204Z,94593.52
2019-06-26T22:39:00.609Z,94596.60
2019-06-26T22:41:29.391Z,94595.94
2019-06-26T22:43:57.785Z,94589.48
2019-06-26T22:46:26.368Z,94589.58
2019-06-26T22:48:54.770Z,94587.78
2019-06-26T22:51:23.211Z,94589.52
2019-06-26T22:53:51.609Z,94584.25
2019-06-26T22:56:20.052Z,94588.13
2019-06-26T22:58:48.438Z,94587.46
2019-06-26T23:01:16.870Z,94589.30
2019-06-26T23:03:45.254Z,94593.17
2019-06-26T23:06:13.862Z,94592.70
2019-06-26T23:08:42.598Z,94590.13
2019-06-26T23:11:11.011Z,94589.75
2019-06-26T23:13:39.419Z,94588.92
2019-06-26T23:16:08.142Z,94589.42
2019-06-26T23:18:36.545Z,94591.73
2019-06-26T23:21:05.242Z,94591.38
2019-06-26T23:23:33.657Z,94589.47
2019-06-26T23:26:02.066Z,94593.73
2019-06-26T23:28:30.469Z,94588.73
2019-06-26T23:30:58.893Z,94583.28
2019-06-26T23:33:27.617Z,94586.03
2019-06-26T23:35:56.023Z,94580.03
2019-06-26T23:38:24.439Z,94582.66
2019-06-26T23:40:52.844Z,94585.04
2019-06-26T23:43:21.803Z,94596.84
2019-06-26T23:45:50.477Z,94592.50
2019-06-26T23:48:18.884Z,94585.08
2019-06-26T23:50:47.287Z,94590.15
2019-06-26T23:53:15.701Z,94586.98
2019-06-26T23:55:44.095Z,94586.77
2019-06-26T23:58:12.866Z,94585.97
